sensor_id;sensor_type;location;lat;lon;timestamp;pressure;altitude;pressure_sealevel;temperature;humidity
42385;BME280;28042;43.986;22.860;2023-06-05T00:00:12;101778.84;;;15.53;100.00
42385;BME280;28042;43.986;22.860;2023-06-05T00:02:37;101783.72;;;15.51;100.00
42385;BME280;28042;43.986;22.860;2023-06-05T00:05:03;101777.56;;;15.49;100.00
42385;BME280;28042;43.986;22.860;2023-06-05T00:07:28;101769.97;;;15.51;100.00
42385;BME280;28042;43.986;22.860;2023-06-05T00:09:54;101766.38;;;15.51;100.00
42385;BME280;28042;43.986;22.860;2023-06-05T00:12:19;101766.16;;;15.52;100.00
42385;BME280;28042;43.986;22.860;2023-06-05T00:14:44;101767.22;;;15.51;100.00
42385;BME280;28042;43.986;22.860;2023-06-05T00:17:10;101758.09;;;15.51;100.00
42385;BME280;28042;43.986;22.860;2023-06-05T00:19:35;101770.16;;;15.50;100.00
42385;BME280;28042;43.986;22.860;2023-06-05T00:22:00;101763.59;;;15.51;100.00
42385;BME280;28042;43.986;22.860;2023-06-05T00:24:26;101771.66;;;15.52;100.00
42385;BME280;28042;43.986;22.860;2023-06-05T00:26:51;101756.84;;;15.53;100.00
42385;BME280;28042;43.986;22.860;2023-06-05T00:29:16;101758.09;;;15.51;100.00
42385;BME280;28042;43.986;22.860;2023-06-05T00:31:42;101759.75;;;15.45;100.00
42385;BME280;28042;43.986;22.860;2023-06-05T00:34:08;101746.00;;;15.45;100.00
42385;BME280;28042;43.986;22.860;2023-06-05T00:36:34;101748.38;;;15.48;100.00
42385;BME280;28042;43.986;22.860;2023-06-05T00:39:02;101759.75;;;15.45;100.00
42385;BME280;28042;43.986;22.860;2023-06-05T00:41:27;101758.91;;;15.45;100.00
42385;BME280;28042;43.986;22.860;2023-06-05T00:43:52;101747.06;;;15.44;100.00
42385;BME280;28042;43.986;22.860;2023-06-05T00:46:18;101748.38;;;15.48;100.00
42385;BME280;28042;43.986;22.860;2023-06-05T00:48:44;101755.56;;;15.49;100.00
42385;BME280;28042;43.986;22.860;2023-06-05T00:51:13;101747.91;;;15.38;100.00
42385;BME280;28042;43.986;22.860;2023-06-05T00:53:40;101749.19;;;15.42;100.00
42385;BME280;28042;43.986;22.860;2023-06-05T00:56:07;101748.81;;;15.52;100.00
42385;BME280;28042;43.986;22.860;2023-06-05T00:58:32;101746.31;;;15.57;100.00
42385;BME280;28042;43.986;22.860;2023-06-05T01:00:57;101740.38;;;15.60;100.00
42385;BME280;28042;43.986;22.860;2023-06-05T01:03:23;101732.19;;;15.67;100.00
42385;BME280;28042;43.986;22.860;2023-06-05T01:05:48;101729.88;;;15.70;100.00
42385;BME280;28042;43.986;22.860;2023-06-05T01:08:14;101722.25;;;15.66;100.00
42385;BME280;28042;43.986;22.860;2023-06-05T01:10:42;101717.94;;;15.57;100.00
42385;BME280;28042;43.986;22.860;2023-06-05T01:13:14;101708.19;;;15.47;100.00
42385;BME280;28042;43.986;22.860;2023-06-05T01:15:42;101715.59;;;15.53;100.00
42385;BME280;28042;43.986;22.860;2023-06-05T01:18:07;101716.28;;;15.62;100.00
42385;BME280;28042;43.986;22.860;2023-06-05T01:20:34;101718.84;;;15.64;100.00
42385;BME280;28042;43.986;22.860;2023-06-05T01:23:00;101723.44;;;15.57;100.00
42385;BME280;28042;43.986;22.860;2023-06-05T01:25:25;101715.41;;;15.55;100.00
42385;BME280;28042;43.986;22.860;2023-06-05T01:28:02;101721.25;;;15.45;100.00
42385;BME280;28042;43.986;22.860;2023-06-05T01:30:30;101717.47;;;15.40;100.00
42385;BME280;28042;43.986;22.860;2023-06-05T01:33:17;101724.59;;;15.34;100.00
42385;BME280;28042;43.986;22.860;2023-06-05T01:35:45;101731.97;;;15.27;100.00
42385;BME280;28042;43.986;22.860;2023-06-05T01:38:16;101730.06;;;15.21;100.00
42385;BME280;28042;43.986;22.860;2023-06-05T01:40:42;101732.97;;;15.19;100.00
42385;BME280;28042;43.986;22.860;2023-06-05T01:43:08;101735.09;;;15.17;100.00
42385;BME280;28042;43.986;22.860;2023-06-05T01:45:35;101741.44;;;15.18;100.00
42385;BME280;28042;43.986;22.860;2023-06-05T01:48:02;101741.00;;;15.14;100.00
42385;BME280;28042;43.986;22.860;2023-06-05T01:50:32;101753.66;;;15.09;100.00
42385;BME280;28042;43.986;22.860;2023-06-05T01:52:58;101750.31;;;15.13;100.00
42385;BME280;28042;43.986;22.860;2023-06-05T01:55:26;101749.47;;;15.13;100.00
42385;BME280;28042;43.986;22.860;2023-06-05T01:57:52;101745.00;;;15.12;100.00
42385;BME280;28042;43.986;22.860;2023-06-05T02:00:17;101745.19;;;15.10;100.00
42385;BME280;28042;43.986;22.860;2023-06-05T02:02:43;101743.53;;;15.16;100.00
42385;BME280;28042;43.986;22.860;2023-06-05T02:05:10;101741.06;;;15.21;100.00
42385;BME280;28042;43.986;22.860;2023-06-05T02:07:37;101741.91;;;15.28;100.00
42385;BME280;28042;43.986;22.860;2023-06-05T02:10:04;101737.25;;;15.28;100.00
42385;BME280;28042;43.986;22.860;2023-06-05T02:12:30;101728.00;;;15.36;100.00
42385;BME280;28042;43.986;22.860;2023-06-05T02:14:55;101723.16;;;15.38;100.00
42385;BME280;28042;43.986;22.860;2023-06-05T02:17:22;101725.84;;;15.25;100.00
42385;BME280;28042;43.986;22.860;2023-06-05T02:19:50;101720.72;;;15.15;100.00
42385;BME280;28042;43.986;22.860;2023-06-05T02:22:15;101724.72;;;15.13;100.00
42385;BME280;28042;43.986;22.860;2023-06-05T02:24:40;101719.06;;;15.21;100.00
42385;BME280;28042;43.986;22.860;2023-06-05T02:27:06;101727.94;;;15.23;100.00
42385;BME280;28042;43.986;22.860;2023-06-05T02:29:33;101727.47;;;15.19;100.00
42385;BME280;28042;43.986;22.860;2023-06-05T02:31:58;101723.66;;;15.14;100.00
42385;BME280;28042;43.986;22.860;2023-06-05T02:34:24;101728.28;;;15.07;100.00
42385;BME280;28042;43.986;22.860;2023-06-05T02:36:50;101727.00;;;15.09;100.00
42385;BME280;28042;43.986;22.860;2023-06-05T02:39:15;101729.56;;;15.11;100.00
42385;BME280;28042;43.986;22.860;2023-06-05T02:41:41;101733.34;;;15.10;100.00
42385;BME280;28042;43.986;22.860;2023-06-05T02:44:07;101731.28;;;15.12;100.00
42385;BME280;28042;43.986;22.860;2023-06-05T02:46:33;101738.47;;;15.13;100.00
42385;BME280;28042;43.986;22.860;2023-06-05T02:48:58;101731.06;;;15.20;100.00
42385;BME280;28042;43.986;22.860;2023-06-05T02:51:23;101736.81;;;15.25;100.00
42385;BME280;28042;43.986;22.860;2023-06-05T02:53:49;101742.13;;;15.26;100.00
42385;BME280;28042;43.986;22.860;2023-06-05T02:56:14;101733.66;;;15.28;100.00
42385;BME280;28042;43.986;22.860;2023-06-05T02:58:40;101736.81;;;15.25;100.00
42385;BME280;28042;43.986;22.860;2023-06-05T03:01:09;101736.56;;;15.20;100.00
42385;BME280;28042;43.986;22.860;2023-06-05T03:03:35;101741.06;;;15.21;100.00
42385;BME280;28042;43.986;22.860;2023-06-05T03:06:01;101733.19;;;15.18;100.00
42385;BME280;28042;43.986;22.860;2023-06-05T03:08:32;101734.72;;;15.20;100.00
42385;BME280;28042;43.986;22.860;2023-06-05T03:10:59;101733.22;;;15.24;100.00
42385;BME280;28042;43.986;22.860;2023-06-05T03:13:24;101737.25;;;15.28;100.00
42385;BME280;28042;43.986;22.860;2023-06-05T03:15:49;101738.94;;;15.23;100.00
42385;BME280;28042;43.986;22.860;2023-06-05T03:18:18;101737.25;;;15.22;100.00
42385;BME280;28042;43.986;22.860;2023-06-05T03:20:44;101738.31;;;15.21;100.00
42385;BME280;28042;43.986;22.860;2023-06-05T03:23:10;101736.56;;;15.20;100.00
42385;BME280;28042;43.986;22.860;2023-06-05T03:25:35;101734.72;;;15.27;100.00
42385;BME280;28042;43.986;22.860;2023-06-05T03:28:00;101744.69;;;15.35;100.00
42385;BME280;28042;43.986;22.860;2023-06-05T03:30:26;101738.59;;;15.39;100.00
42385;BME280;28042;43.986;22.860;2023-06-05T03:32:51;101726.75;;;15.45;100.00
42385;BME280;28042;43.986;22.860;2023-06-05T03:35:16;101723.38;;;15.43;100.00
42385;BME280;28042;43.986;22.860;2023-06-05T03:37:43;101716.78;;;15.31;100.00
42385;BME280;28042;43.986;22.860;2023-06-05T03:40:08;101721.25;;;15.45;100.00
42385;BME280;28042;43.986;22.860;2023-06-05T03:42:34;101714.59;;;15.61;100.00
42385;BME280;28042;43.986;22.860;2023-06-05T03:44:59;101720.56;;;15.78;100.00
42385;BME280;28042;43.986;22.860;2023-06-05T03:47:24;101719.75;;;15.84;100.00
42385;BME280;28042;43.986;22.860;2023-06-05T03:49:53;101714.06;;;15.92;100.00
42385;BME280;28042;43.986;22.860;2023-06-05T03:52:20;101707.09;;;16.03;100.00
42385;BME280;28042;43.986;22.860;2023-06-05T03:54:49;101701.59;;;16.09;100.00
42385;BME280;28042;43.986;22.860;2023-06-05T03:57:18;101706.91;;;16.18;100.00
42385;BME280;28042;43.986;22.860;2023-06-05T03:59:45;101702.91;;;16.27;100.00
42385;BME280;28042;43.986;22.860;2023-06-05T04:02:12;101706.28;;;16.29;100.00
42385;BME280;28042;43.986;22.860;2023-06-05T04:04:37;101695.28;;;16.42;100.00
42385;BME280;28042;43.986;22.860;2023-06-05T04:07:02;101695.47;;;16.47;100.00
42385;BME280;28042;43.986;22.860;2023-06-05T04:09:28;101691.88;;;16.53;100.00
42385;BME280;28042;43.986;22.860;2023-06-05T04:11:53;101703.75;;;16.60;100.00
42385;BME280;28042;43.986;22.860;2023-06-05T04:14:20;101699.28;;;16.59;100.00
42385;BME280;28042;43.986;22.860;2023-06-05T04:16:45;101700.81;;;16.69;100.00
42385;BME280;28042;43.986;22.860;2023-06-05T04:19:11;101695.25;;;16.82;100.00
42385;BME280;28042;43.986;22.860;2023-06-05T04:21:37;101699.88;;;17.01;100.00
42385;BME280;28042;43.986;22.860;2023-06-05T04:24:03;101701.53;;;17.22;100.00
42385;BME280;28042;43.986;22.860;2023-06-05T04:26:32;101691.97;;;17.76;100.00
42385;BME280;28042;43.986;22.860;2023-06-05T04:28:58;101678.41;;;18.81;100.00
42385;BME280;28042;43.986;22.860;2023-06-05T04:31:23;101669.03;;;19.37;100.00
42385;BME280;28042;43.986;22.860;2023-06-05T04:33:50;101668.50;;;19.65;100.00
42385;BME280;28042;43.986;22.860;2023-06-05T04:36:15;101667.97;;;19.98;100.00
42385;BME280;28042;43.986;22.860;2023-06-05T04:38:43;101667.44;;;20.08;98.81
42385;BME280;28042;43.986;22.860;2023-06-05T04:41:08;101669.31;;;20.49;96.06
42385;BME280;28042;43.986;22.860;2023-06-05T04:43:35;101669.38;;;20.19;95.30
42385;BME280;28042;43.986;22.860;2023-06-05T04:46:01;101674.81;;;19.84;99.16
42385;BME280;28042;43.986;22.860;2023-06-05T04:48:26;101675.31;;;19.92;99.35
42385;BME280;28042;43.986;22.860;2023-06-05T04:50:52;101669.88;;;20.39;97.75
42385;BME280;28042;43.986;22.860;2023-06-05T04:53:18;101672.56;;;20.81;93.20
42385;BME280;28042;43.986;22.860;2023-06-05T04:55:43;101678.84;;;20.88;91.85
42385;BME280;28042;43.986;22.860;2023-06-05T04:58:10;101683.06;;;20.91;91.50
42385;BME280;28042;43.986;22.860;2023-06-05T05:00:36;101681.34;;;21.01;91.27
42385;BME280;28042;43.986;22.860;2023-06-05T05:03:01;101673.53;;;20.98;91.55
42385;BME280;28042;43.986;22.860;2023-06-05T05:05:27;101676.78;;;20.72;90.46
42385;BME280;28042;43.986;22.860;2023-06-05T05:07:53;101677.94;;;20.41;90.80
42385;BME280;28042;43.986;22.860;2023-06-05T05:10:18;101681.28;;;20.08;93.45
42385;BME280;28042;43.986;22.860;2023-06-05T05:12:43;101682.38;;;19.76;96.91
42385;BME280;28042;43.986;22.860;2023-06-05T05:15:09;101683.06;;;19.54;98.02
42385;BME280;28042;43.986;22.860;2023-06-05T05:17:34;101683.09;;;19.35;100.00
42385;BME280;28042;43.986;22.860;2023-06-05T05:20:00;101678.59;;;19.71;99.37
42385;BME280;28042;43.986;22.860;2023-06-05T05:22:25;101675.41;;;20.16;97.87
42385;BME280;28042;43.986;22.860;2023-06-05T05:24:51;101680.72;;;20.29;95.34
42385;BME280;28042;43.986;22.860;2023-06-05T05:27:17;101665.47;;;20.73;92.33
42385;BME280;28042;43.986;22.860;2023-06-05T05:29:42;101663.88;;;20.89;89.94
42385;BME280;28042;43.986;22.860;2023-06-05T05:32:07;101669.78;;;20.93;90.22
42385;BME280;28042;43.986;22.860;2023-06-05T05:34:32;101661.53;;;21.33;86.02
42385;BME280;28042;43.986;22.860;2023-06-05T05:37:01;101654.16;;;21.67;83.95
42385;BME280;28042;43.986;22.860;2023-06-05T05:39:26;101657.47;;;21.52;83.47
42385;BME280;28042;43.986;22.860;2023-06-05T05:41:51;101664.66;;;21.36;84.58
42385;BME280;28042;43.986;22.860;2023-06-05T05:44:17;101662.84;;;21.18;86.61
42385;BME280;28042;43.986;22.860;2023-06-05T05:46:45;101650.69;;;21.31;86.05
42385;BME280;28042;43.986;22.860;2023-06-05T05:49:10;101647.66;;;21.33;87.99
42385;BME280;28042;43.986;22.860;2023-06-05T05:51:35;101645.06;;;21.55;86.21
42385;BME280;28042;43.986;22.860;2023-06-05T05:54:01;101645.84;;;22.12;83.58
42385;BME280;28042;43.986;22.860;2023-06-05T05:56:26;101643.50;;;22.38;79.07
42385;BME280;28042;43.986;22.860;2023-06-05T05:58:51;101654.31;;;22.90;73.89
42385;BME280;28042;43.986;22.860;2023-06-05T06:01:17;101655.03;;;23.02;72.24
42385;BME280;28042;43.986;22.860;2023-06-05T06:03:42;101656.25;;;22.89;73.67
42385;BME280;28042;43.986;22.860;2023-06-05T06:06:08;101646.00;;;22.22;77.15
42385;BME280;28042;43.986;22.860;2023-06-05T06:08:34;101640.59;;;21.99;80.02
42385;BME280;28042;43.986;22.860;2023-06-05T06:11:00;101656.47;;;22.49;77.98
42385;BME280;28042;43.986;22.860;2023-06-05T06:13:25;101662.16;;;22.76;78.41
42385;BME280;28042;43.986;22.860;2023-06-05T06:15:51;101663.81;;;23.32;72.55
42385;BME280;28042;43.986;22.860;2023-06-05T06:18:16;101661.06;;;24.13;69.85
42385;BME280;28042;43.986;22.860;2023-06-05T06:20:41;101667.44;;;24.73;67.29
42385;BME280;28042;43.986;22.860;2023-06-05T06:23:07;101656.84;;;25.17;63.70
42385;BME280;28042;43.986;22.860;2023-06-05T06:25:32;101655.31;;;24.94;61.86
42385;BME280;28042;43.986;22.860;2023-06-05T06:27:59;101661.94;;;24.46;63.11
42385;BME280;28042;43.986;22.860;2023-06-05T06:30:25;101660.53;;;24.43;63.27
42385;BME280;28042;43.986;22.860;2023-06-05T06:32:50;101656.75;;;24.60;63.63
42385;BME280;28042;43.986;22.860;2023-06-05T06:35:15;101663.13;;;24.97;61.95
42385;BME280;28042;43.986;22.860;2023-06-05T06:37:41;101668.16;;;25.00;62.13
42385;BME280;28042;43.986;22.860;2023-06-05T06:40:07;101663.13;;;24.55;63.04
42385;BME280;28042;43.986;22.860;2023-06-05T06:42:36;101660.63;;;25.01;62.79
42385;BME280;28042;43.986;22.860;2023-06-05T06:45:01;101668.56;;;24.72;66.78
42385;BME280;28042;43.986;22.860;2023-06-05T06:47:28;101661.06;;;24.40;67.49
42385;BME280;28042;43.986;22.860;2023-06-05T06:49:53;101673.72;;;23.67;69.39
42385;BME280;28042;43.986;22.860;2023-06-05T06:52:19;101675.19;;;23.09;75.58
42385;BME280;28042;43.986;22.860;2023-06-05T06:54:45;101664.88;;;22.88;72.30
42385;BME280;28042;43.986;22.860;2023-06-05T06:57:11;101671.03;;;22.90;74.35
42385;BME280;28042;43.986;22.860;2023-06-05T06:59:37;101672.41;;;23.09;72.90
42385;BME280;28042;43.986;22.860;2023-06-05T07:04:54;101672.47;;;23.14;71.96
42385;BME280;28042;43.986;22.860;2023-06-05T07:07:20;101674.59;;;23.07;73.63
42385;BME280;28042;43.986;22.860;2023-06-05T07:09:48;101674.50;;;22.63;73.94
42385;BME280;28042;43.986;22.860;2023-06-05T07:12:14;101678.22;;;22.52;72.40
42385;BME280;28042;43.986;22.860;2023-06-05T07:14:40;101671.56;;;22.36;73.48
42385;BME280;28042;43.986;22.860;2023-06-05T07:17:05;101671.06;;;21.94;73.04
42385;BME280;28042;43.986;22.860;2023-06-05T07:19:31;101680.78;;;21.51;74.79
42385;BME280;28042;43.986;22.860;2023-06-05T07:21:57;101678.97;;;21.85;74.53
42385;BME280;28042;43.986;22.860;2023-06-05T07:24:23;101691.84;;;22.20;73.76
42385;BME280;28042;43.986;22.860;2023-06-05T07:26:49;101688.81;;;22.55;70.29
42385;BME280;28042;43.986;22.860;2023-06-05T07:29:15;101692.09;;;22.18;69.17
42385;BME280;28042;43.986;22.860;2023-06-05T07:31:40;101687.22;;;21.97;72.08
42385;BME280;28042;43.986;22.860;2023-06-05T07:34:06;101685.63;;;22.29;73.77
42385;BME280;28042;43.986;22.860;2023-06-05T07:36:31;101701.63;;;22.73;72.43
42385;BME280;28042;43.986;22.860;2023-06-05T07:38:58;101698.16;;;22.99;73.22
42385;BME280;28042;43.986;22.860;2023-06-05T07:41:23;101696.19;;;23.38;69.66
42385;BME280;28042;43.986;22.860;2023-06-05T07:43:50;101692.22;;;23.78;68.79
42385;BME280;28042;43.986;22.860;2023-06-05T07:46:15;101690.34;;;24.11;69.02
42385;BME280;28042;43.986;22.860;2023-06-05T07:48:41;101690.66;;;24.41;66.30
42385;BME280;28042;43.986;22.860;2023-06-05T07:51:06;101709.94;;;23.67;68.70
42385;BME280;28042;43.986;22.860;2023-06-05T07:53:33;101702.69;;;23.66;68.46
42385;BME280;28042;43.986;22.860;2023-06-05T07:55:59;101712.19;;;23.70;66.71
42385;BME280;28042;43.986;22.860;2023-06-05T07:58:24;101703.38;;;23.78;67.70
42385;BME280;28042;43.986;22.860;2023-06-05T08:00:52;101704.09;;;24.22;62.39
42385;BME280;28042;43.986;22.860;2023-06-05T08:03:18;101698.28;;;24.56;58.02
42385;BME280;28042;43.986;22.860;2023-06-05T08:05:48;101690.81;;;24.67;58.16
42385;BME280;28042;43.986;22.860;2023-06-05T08:08:14;101696.47;;;24.72;57.77
42385;BME280;28042;43.986;22.860;2023-06-05T08:10:40;101688.22;;;24.50;58.00
42385;BME280;28042;43.986;22.860;2023-06-05T08:13:07;101684.97;;;24.04;60.35
42385;BME280;28042;43.986;22.860;2023-06-05T08:15:32;101694.91;;;23.68;60.61
42385;BME280;28042;43.986;22.860;2023-06-05T08:17:57;101700.81;;;23.99;59.84
42385;BME280;28042;43.986;22.860;2023-06-05T08:20:23;101692.84;;;24.12;58.11
42385;BME280;28042;43.986;22.860;2023-06-05T08:22:48;101692.22;;;24.32;58.75
42385;BME280;28042;43.986;22.860;2023-06-05T08:25:14;101685.41;;;24.92;58.08
42385;BME280;28042;43.986;22.860;2023-06-05T08:27:39;101688.72;;;24.84;55.74
42385;BME280;28042;43.986;22.860;2023-06-05T08:30:05;101690.94;;;24.82;56.34
42385;BME280;28042;43.986;22.860;2023-06-05T08:32:30;101688.94;;;25.15;58.63
42385;BME280;28042;43.986;22.860;2023-06-05T08:34:56;101681.72;;;25.24;58.24
42385;BME280;28042;43.986;22.860;2023-06-05T08:37:21;101678.44;;;25.42;54.21
42385;BME280;28042;43.986;22.860;2023-06-05T08:39:46;101669.75;;;25.33;56.71
42385;BME280;28042;43.986;22.860;2023-06-05T08:42:13;101672.56;;;25.33;55.82
42385;BME280;28042;43.986;22.860;2023-06-05T08:44:43;101671.69;;;25.28;57.09
42385;BME280;28042;43.986;22.860;2023-06-05T08:47:08;101672.22;;;25.20;56.99
42385;BME280;28042;43.986;22.860;2023-06-05T08:49:34;101665.34;;;24.95;54.83
42385;BME280;28042;43.986;22.860;2023-06-05T08:52:03;101673.75;;;25.00;57.70
42385;BME280;28042;43.986;22.860;2023-06-05T08:54:48;101671.50;;;24.97;56.69
42385;BME280;28042;43.986;22.860;2023-06-05T08:57:14;101672.91;;;24.95;59.34
42385;BME280;28042;43.986;22.860;2023-06-05T08:59:40;101679.84;;;25.40;57.80
42385;BME280;28042;43.986;22.860;2023-06-05T09:02:05;101672.47;;;25.18;53.68
42385;BME280;28042;43.986;22.860;2023-06-05T09:04:30;101669.50;;;25.40;55.96
42385;BME280;28042;43.986;22.860;2023-06-05T09:06:57;101667.88;;;25.02;56.22
42385;BME280;28042;43.986;22.860;2023-06-05T09:09:22;101675.53;;;24.37;57.19
42385;BME280;28042;43.986;22.860;2023-06-05T09:11:48;101665.50;;;24.36;57.85
42385;BME280;28042;43.986;22.860;2023-06-05T09:14:25;101661.38;;;24.44;57.78
42385;BME280;28042;43.986;22.860;2023-06-05T09:16:50;101672.22;;;24.13;56.78
42385;BME280;28042;43.986;22.860;2023-06-05T09:19:18;101673.13;;;24.19;56.44
42385;BME280;28042;43.986;22.860;2023-06-05T09:21:54;101672.25;;;23.86;56.67
42385;BME280;28042;43.986;22.860;2023-06-05T09:24:20;101681.34;;;23.55;58.76
42385;BME280;28042;43.986;22.860;2023-06-05T09:29:11;101666.22;;;23.46;63.48
42385;BME280;28042;43.986;22.860;2023-06-05T09:31:40;101670.47;;;23.31;61.37
42385;BME280;28042;43.986;22.860;2023-06-05T09:34:05;101668.91;;;23.40;60.83
42385;BME280;28042;43.986;22.860;2023-06-05T09:36:30;101675.31;;;23.63;60.26
42385;BME280;28042;43.986;22.860;2023-06-05T09:39:00;101677.66;;;23.49;61.12
42385;BME280;28042;43.986;22.860;2023-06-05T09:41:41;101674.38;;;23.30;60.78
42385;BME280;28042;43.986;22.860;2023-06-05T09:44:06;101662.88;;;23.27;64.20
42385;BME280;28042;43.986;22.860;2023-06-05T09:46:32;101665.16;;;23.74;63.86
42385;BME280;28042;43.986;22.860;2023-06-05T09:48:58;101667.25;;;23.88;60.80
42385;BME280;28042;43.986;22.860;2023-06-05T09:51:26;101661.81;;;24.04;59.34
42385;BME280;28042;43.986;22.860;2023-06-05T09:53:51;101654.38;;;24.09;59.99
42385;BME280;28042;43.986;22.860;2023-06-05T09:56:18;101652.06;;;24.01;59.90
42385;BME280;28042;43.986;22.860;2023-06-05T09:58:45;101652.47;;;23.61;64.30
42385;BME280;28042;43.986;22.860;2023-06-05T10:01:11;101642.28;;;23.50;65.33
42385;BME280;28042;43.986;22.860;2023-06-05T10:03:38;101640.66;;;23.54;64.17
42385;BME280;28042;43.986;22.860;2023-06-05T10:06:05;101635.84;;;23.71;63.65
42385;BME280;28042;43.986;22.860;2023-06-05T10:08:32;101645.41;;;23.31;66.65
42385;BME280;28042;43.986;22.860;2023-06-05T10:10:57;101635.84;;;23.71;65.42
42385;BME280;28042;43.986;22.860;2023-06-05T10:13:23;101644.06;;;24.10;66.67
42385;BME280;28042;43.986;22.860;2023-06-05T10:15:48;101636.00;;;24.45;62.79
42385;BME280;28042;43.986;22.860;2023-06-05T10:18:15;101638.25;;;24.48;61.71
42385;BME280;28042;43.986;22.860;2023-06-05T10:20:40;101643.28;;;23.87;63.43
42385;BME280;28042;43.986;22.860;2023-06-05T10:23:06;101634.50;;;23.52;63.02
42385;BME280;28042;43.986;22.860;2023-06-05T10:25:31;101621.22;;;23.59;63.38
42385;BME280;28042;43.986;22.860;2023-06-05T10:38:07;101615.72;;;24.23;60.11
42385;BME280;28042;43.986;22.860;2023-06-05T10:40:38;101627.16;;;23.89;61.46
42385;BME280;28042;43.986;22.860;2023-06-05T10:45:48;101611.84;;;24.29;62.15
42385;BME280;28042;43.986;22.860;2023-06-05T10:48:13;101611.63;;;24.68;62.54
42385;BME280;28042;43.986;22.860;2023-06-05T10:50:38;101602.38;;;25.15;57.67
42385;BME280;28042;43.986;22.860;2023-06-05T10:53:04;101606.81;;;24.63;57.56
42385;BME280;28042;43.986;22.860;2023-06-05T10:55:40;101606.72;;;24.48;60.27
42385;BME280;28042;43.986;22.860;2023-06-05T11:00:33;101605.94;;;24.58;59.51
42385;BME280;28042;43.986;22.860;2023-06-05T11:02:58;101614.50;;;24.93;61.85
42385;BME280;28042;43.986;22.860;2023-06-05T11:05:25;101611.47;;;24.95;57.50
42385;BME280;28042;43.986;22.860;2023-06-05T11:10:35;101603.75;;;24.65;59.96
42385;BME280;28042;43.986;22.860;2023-06-05T11:13:00;101602.13;;;24.69;60.67
42385;BME280;28042;43.986;22.860;2023-06-05T11:17:54;101594.56;;;24.27;64.38
42385;BME280;28042;43.986;22.860;2023-06-05T11:27:50;101600.34;;;25.83;59.05
42385;BME280;28042;43.986;22.860;2023-06-05T11:30:20;101590.56;;;26.01;59.90
42385;BME280;28042;43.986;22.860;2023-06-05T11:32:46;101589.44;;;25.86;58.83
42385;BME280;28042;43.986;22.860;2023-06-05T11:35:11;101595.00;;;26.47;57.73
42385;BME280;28042;43.986;22.860;2023-06-05T11:37:37;101593.03;;;26.63;59.17
42385;BME280;28042;43.986;22.860;2023-06-05T11:40:03;101597.72;;;26.93;56.45
42385;BME280;28042;43.986;22.860;2023-06-05T11:42:34;101598.53;;;27.04;58.52
42385;BME280;28042;43.986;22.860;2023-06-05T11:45:00;101590.00;;;27.29;54.14
42385;BME280;28042;43.986;22.860;2023-06-05T11:47:26;101589.47;;;27.22;54.84
42385;BME280;28042;43.986;22.860;2023-06-05T11:52:33;101584.78;;;27.13;56.17
42385;BME280;28042;43.986;22.860;2023-06-05T11:55:20;101573.13;;;27.40;56.53
42385;BME280;28042;43.986;22.860;2023-06-05T11:57:47;101582.75;;;27.18;55.75
42385;BME280;28042;43.986;22.860;2023-06-05T12:00:13;101571.03;;;27.01;56.61
42385;BME280;28042;43.986;22.860;2023-06-05T12:02:40;101569.06;;;27.17;57.24
42385;BME280;28042;43.986;22.860;2023-06-05T12:05:06;101568.38;;;27.35;56.30
42385;BME280;28042;43.986;22.860;2023-06-05T12:07:33;101564.19;;;27.38;54.14
42385;BME280;28042;43.986;22.860;2023-06-05T12:10:01;101564.13;;;27.48;55.96
42385;BME280;28042;43.986;22.860;2023-06-05T12:12:28;101576.41;;;27.52;55.29
42385;BME280;28042;43.986;22.860;2023-06-05T12:14:53;101568.03;;;26.87;55.15
42385;BME280;28042;43.986;22.860;2023-06-05T12:17:20;101558.91;;;26.36;57.62
42385;BME280;28042;43.986;22.860;2023-06-05T12:19:53;101547.22;;;25.73;58.89
42385;BME280;28042;43.986;22.860;2023-06-05T12:22:19;101563.88;;;25.22;61.58
42385;BME280;28042;43.986;22.860;2023-06-05T12:24:45;101558.28;;;25.22;64.64
42385;BME280;28042;43.986;22.860;2023-06-05T12:27:11;101545.53;;;25.87;61.48
42385;BME280;28042;43.986;22.860;2023-06-05T12:29:37;101548.88;;;25.94;59.11
42385;BME280;28042;43.986;22.860;2023-06-05T12:32:22;101545.81;;;26.01;62.32
42385;BME280;28042;43.986;22.860;2023-06-05T12:34:48;101540.16;;;26.36;59.20
42385;BME280;28042;43.986;22.860;2023-06-05T12:37:23;101541.59;;;26.34;59.71
42385;BME280;28042;43.986;22.860;2023-06-05T12:39:48;101533.78;;;25.85;58.65
42385;BME280;28042;43.986;22.860;2023-06-05T12:42:13;101535.69;;;25.54;62.72
42385;BME280;28042;43.986;22.860;2023-06-05T12:44:39;101526.50;;;25.63;60.90
42385;BME280;28042;43.986;22.860;2023-06-05T12:47:04;101521.50;;;25.76;60.70
42385;BME280;28042;43.986;22.860;2023-06-05T12:49:31;101520.91;;;26.19;60.73
42385;BME280;28042;43.986;22.860;2023-06-05T12:51:57;101522.41;;;26.82;60.65
42385;BME280;28042;43.986;22.860;2023-06-05T12:54:22;101525.97;;;27.08;58.39
42385;BME280;28042;43.986;22.860;2023-06-05T12:56:48;101527.31;;;26.40;59.44
42385;BME280;28042;43.986;22.860;2023-06-05T12:59:14;101524.44;;;26.66;59.78
42385;BME280;28042;43.986;22.860;2023-06-05T13:01:39;101513.03;;;26.37;58.57
42385;BME280;28042;43.986;22.860;2023-06-05T13:04:05;101508.59;;;26.26;59.48
42385;BME280;28042;43.986;22.860;2023-06-05T13:06:30;101503.69;;;26.77;60.86